Latest Weather Observations for Normanton

IDQ60801

Issued at 12:02 pm EST Tuesday 21 November 2017 (issued every 30 minutes, with the page automatically refreshed every 10 minutes)

About weather observations | Map of weather stations | Latest weather observations for QLD | Other Formats
Station Details ID: 029063 Name: NORMANTON AIRPORT Lat: -17.69 Lon: 141.07 Height: 18.42 m
Data from the previous 72 hours. | See also: Recent months at Normanton
Date/Time
EST
Temp
°C
App
Temp
°C
Dew
Point
°C
Rel
Hum
%
Delta-T
°C
Wind Press
QNH
hPa
Press
MSL
hPa
Rain since
9am
mm
Dir  Spd
km/h
Gust
km/h
Spd
kts
Gust
kts
21/12:00pm 32.8 32.3 20.7 49 8.1 NW 24 35 13 19 1009.0 - 0.0
21/11:30am 32.7 31.6 20.2 47 8.3 NNW 26 35 14 19 1009.5 - 0.0
21/11:00am 33.1 33.2 20.3 47 8.5 N 20 30 11 16 1009.7 - 0.0
21/10:30am 32.3 32.2 19.9 48 8.2 N 20 33 11 18 1009.9 - 0.0
21/10:00am 31.1 30.7 20.1 52 7.3 N 22 30 12 16 1010.0 - 0.0
21/09:30am 31.0 31.6 20.3 53 7.1 N 17 26 9 14 1010.0 - 0.0
21/09:00am 30.7 31.7 20.3 53 6.9 NNE 15 24 8 13 1009.4 - 0.0
21/08:30am 29.0 29.4 19.9 58 6.0 N 17 24 9 13 1009.4 - 0.0
21/08:00am 28.4 28.9 20.1 60 5.4 N 17 24 9 13 1009.8 - 0.0
21/07:30am 27.0 27.6 20.3 66 4.4 N 17 24 9 13 1009.6 - 0.0
21/07:00am 26.6 28.0 20.4 69 4.1 NNE 13 20 7 11 1009.3 - 0.0
21/06:30am 25.3 27.1 20.3 74 3.3 NE 11 17 6 9 1008.9 - 0.0
21/06:00am 24.8 26.9 20.1 75 3.0 ENE 9 17 5 9 1008.9 - 0.0
21/05:30am 24.8 26.2 19.6 73 3.3 ENE 11 19 6 10 1008.4 - 0.0
21/05:00am 25.1 26.4 19.2 70 3.8 E 11 15 6 8 1008.5 - 0.0
21/04:30am 25.5 27.1 19.2 68 4.0 E 9 15 5 8 1008.5 - 0.0
21/04:00am 25.9 27.0 18.8 65 4.5 E 11 19 6 10 1008.1 - 0.0
21/03:30am 25.9 25.6 19.1 66 4.4 ENE 19 32 10 17 1008.1 - 0.0
21/03:00am 25.0 27.9 19.1 70 3.8 ENE 2 11 1 6 1007.7 - 0.0
21/02:30am 25.0 26.9 18.9 69 3.9 NE 7 9 4 5 1007.4 - 0.0
21/02:00am 25.4 27.2 18.8 67 4.2 NNE 7 9 4 5 1007.7 - 0.0
21/01:30am 25.7 27.3 19.1 67 4.2 NNE 9 15 5 8 1007.5 - 0.0
21/01:00am 25.7 27.2 18.9 66 4.3 NNE 9 15 5 8 1007.6 - 0.0
21/12:30am 25.9 27.3 18.6 64 4.6 NE 9 15 5 8 1007.9 - 0.0
21/12:00am 26.3 27.2 18.4 61 5.0 NNE 11 19 6 10 1008.2 - 0.0
 
Date/Time
EST
Temp
°C
App
Temp
°C
Dew
Point
°C
Rel
Hum
%
Delta-T
°C
Wind Press
QNH
hPa
Press
MSL
hPa
Rain since
9am
mm
Dir  Spd
km/h
Gust
km/h
Spd
kts
Gust
kts
20/11:30pm 26.4 26.7 18.0 60 5.3 NE 13 20 7 11 1008.4 - 0.0
20/11:00pm 26.9 28.0 17.9 57 5.7 NNE 9 17 5 9 1008.5 - 0.0
20/10:30pm 26.9 27.7 18.2 59 5.5 NNE 11 15 6 8 1008.5 - 0.0
20/10:00pm 26.9 28.2 18.5 60 5.4 NE 9 15 5 8 1008.6 - 0.0
20/09:30pm 26.8 27.7 19.2 63 4.9 NE 13 19 7 10 1008.6 - 0.0
20/09:00pm 26.7 28.1 20.3 68 4.2 NE 13 19 7 10 1008.5 - 0.0
20/08:30pm 27.0 29.3 19.9 65 4.6 NNE 7 11 4 6 1008.9 - 0.0
20/08:00pm 26.6 29.7 20.2 68 4.2 S 4 9 2 5 1009.1 - 0.0
20/07:30pm 26.3 27.7 20.4 70 3.9 ESE 13 19 7 10 1008.7 - 0.0
20/07:00pm 27.3 25.2 18.9 60 5.4 SSE 28 41 15 22 1009.6 - 0.0
20/06:40pm 28.3 25.8 18.1 54 6.5 SSE 28 44 15 24 1009.1 - 0.0
20/06:30pm 30.4 30.2 19.4 51 7.2 SSE 19 26 10 14 1008.8 - 0.0
20/06:26pm 30.4 30.1 19.1 50 7.4 SSE 19 24 10 13 1008.9 - 0.0
20/06:00pm 30.4 30.1 18.2 48 7.9 NNW 17 19 9 10 1006.9 1006.4 0.0
20/05:30pm 30.1 30.0 17.9 48 7.8 N 15 24 8 13 1006.6 - 0.0
20/05:00pm 31.8 30.9 22.8 59 6.2 NNW 32 41 17 22 1006.7 - 0.0
20/04:30pm 33.2 32.2 22.6 53 7.3 NNW 32 43 17 23 1006.3 - 0.0
20/04:00pm 33.4 32.0 22.2 52 7.7 NNW 33 41 18 22 1005.7 - 0.0
20/03:30pm 35.4 33.1 21.3 44 9.6 NW 35 46 19 25 1005.7 - 0.0
20/03:00pm 35.5 33.6 21.4 44 9.6 NW 33 48 18 26 1006.0 1006.0 0.0
20/02:30pm 35.1 32.8 20.6 42 9.8 NW 33 44 18 24 1006.5 - 0.0
20/02:00pm 35.5 34.0 21.7 44 9.4 NW 32 41 17 22 1007.1 - 0.0
20/01:30pm 35.6 33.8 21.5 44 9.6 NW 33 44 18 24 1007.8 - 0.0
20/01:09pm 35.2 33.9 20.7 42 9.8 NW 28 46 15 25 1007.9 - 0.0
20/01:00pm 36.2 35.7 20.8 40 10.4 NW 24 35 13 19 1008.0 - 0.0
20/12:30pm 36.1 35.4 21.1 41 10.2 NNW 26 37 14 20 1008.4 - 0.0
20/12:00pm 36.1 36.0 19.9 38 10.8 NNW 20 37 11 20 1008.7 - 0.0
20/11:30am 35.2 34.7 19.9 40 10.2 NNW 22 33 12 18 1009.0 - 0.0
20/11:00am 34.9 33.9 21.2 45 9.3 NNW 28 37 15 20 1009.0 - 0.0
20/10:30am 33.6 33.5 20.7 46 8.7 NNW 22 30 12 16 1009.3 - 0.0
20/10:00am 32.9 33.9 21.7 51 7.6 N 19 30 10 16 1009.8 - 0.0
20/09:30am 32.4 34.2 22.5 56 6.8 N 17 30 9 16 1010.1 - 0.0
20/09:00am 31.9 33.7 22.6 58 6.4 N 17 24 9 13 1010.3 - 0.0
20/08:30am 31.4 34.9 23.5 63 5.5 N 11 15 6 8 1010.5 - 0.0
20/08:00am 30.0 33.6 23.7 69 4.4 NNE 11 17 6 9 1010.6 - 0.0
20/07:30am 29.5 33.5 25.0 77 3.2 N 13 17 7 9 1010.5 - 0.0
20/07:00am 28.8 34.2 25.4 82 2.4 N 7 13 4 7 1010.3 - 0.0
20/06:30am 27.1 32.4 25.3 90 1.3 NE 7 11 4 6 1010.0 - 0.0
20/06:00am 26.6 31.9 25.2 92 1.0 NE 7 11 4 6 1009.7 - 0.0
20/05:30am 26.6 31.7 25.0 91 1.1 NE 7 13 4 7 1009.3 - 0.0
20/05:00am 27.2 31.8 24.8 87 1.7 NE 9 13 5 7 1008.8 - 0.0
20/04:45am 27.9 32.8 24.7 83 2.2 N 7 9 4 5 1008.7 - 0.0
20/04:30am 27.9 33.3 25.1 85 2.0 NNE 6 13 3 7 1008.4 - 0.0
20/04:00am 27.8 33.1 25.2 86 1.8 SW 7 9 4 5 1007.6 - 0.0
20/03:30am 28.0 33.0 25.4 86 1.8 SSW 9 13 5 7 1007.3 - 0.0
20/03:00am 27.9 32.1 25.3 86 1.8 WNW 13 20 7 11 1006.8 - 0.0
20/02:30am 27.8 31.5 25.2 86 1.8 WNW 15 19 8 10 1007.0 - 0.0
20/02:00am 27.9 31.6 25.1 85 2.0 NW 15 20 8 11 1007.0 - 0.0
20/01:30am 27.9 31.3 25.3 86 1.8 NW 17 20 9 11 1007.3 - 0.0
20/01:00am 27.8 31.3 25.4 87 1.7 NW 17 20 9 11 1007.4 - 0.0
20/12:30am 27.9 31.3 25.3 86 1.8 NW 17 20 9 11 1007.5 - 0.0
20/12:00am 27.9 31.2 25.1 85 2.0 NNW 17 20 9 11 1007.6 - 0.0
 
Date/Time
EST
Temp
°C
App
Temp
°C
Dew
Point
°C
Rel
Hum
%
Delta-T
°C
Wind Press
QNH
hPa
Press
MSL
hPa
Rain since
9am
mm
Dir  Spd
km/h
Gust
km/h
Spd
kts
Gust
kts
19/11:30pm 28.0 31.2 25.0 84 2.1 NNW 17 22 9 12 1007.7 - 0.0
19/11:00pm 28.0 31.2 25.0 84 2.1 NNW 17 22 9 12 1007.8 - 0.0
19/10:30pm 28.2 31.4 25.0 83 2.2 NNW 17 20 9 11 1007.7 - 0.0
19/10:00pm 28.4 31.2 25.0 82 2.4 NNW 19 26 10 14 1007.5 - 0.0
19/09:30pm 28.8 31.5 24.8 79 2.8 NNW 19 24 10 13 1007.3 - 0.0
19/09:00pm 29.0 31.5 24.8 78 2.9 NNW 20 24 11 13 1007.1 - 0.0
19/08:30pm 29.3 31.8 24.4 75 3.4 NNW 19 22 10 12 1007.1 - 0.0
19/08:00pm 29.8 32.0 24.0 71 4.0 NNW 19 26 10 14 1007.0 - 0.0
19/07:30pm 30.3 31.9 23.2 65 4.9 NNW 20 28 11 15 1006.7 - 0.0
19/07:00pm 31.1 32.0 22.7 61 5.7 NNW 22 28 12 15 1006.7 - 0.0
19/06:30pm 32.0 32.0 22.4 57 6.6 NNW 26 32 14 17 1006.4 - 0.0
19/06:00pm 32.8 32.0 21.6 51 7.6 NNW 28 33 15 18 1006.1 - 0.0
19/05:30pm 34.1 33.2 21.5 47 8.6 NNW 28 35 15 19 1005.9 - 0.0
19/05:00pm 35.0 32.9 19.8 41 10.1 NNW 30 37 16 20 1005.8 - 0.0
19/04:30pm 35.9 34.8 20.2 40 10.5 NNW 26 35 14 19 1005.6 - 0.0
19/04:00pm 36.3 34.9 20.5 39 10.6 NNW 28 37 15 20 1005.8 - 0.0
19/03:30pm 36.4 35.1 20.6 39 10.7 NNW 28 43 15 23 1005.9 - 0.0
19/03:00pm 37.1 36.3 20.0 37 11.5 NNW 24 39 13 21 1006.2 1006.1 0.0
19/02:30pm 36.5 35.2 19.9 38 11.1 NW 26 35 14 19 1006.5 - 0.0
19/02:00pm 36.3 35.9 20.1 38 10.9 NW 22 39 12 21 1006.9 - 0.0
19/01:30pm 36.0 35.9 19.9 39 10.8 NNW 20 32 11 17 1007.4 - 0.0
19/01:00pm 36.5 35.8 19.4 36 11.4 N 22 33 12 18 1007.9 - 0.0
19/12:30pm 36.3 35.9 19.3 37 11.3 NNW 20 28 11 15 1008.5 - 0.0
19/12:00pm 36.5 36.9 19.0 35 11.6 NW 15 24 8 13 1009.0 - 0.0
19/11:30am 35.6 36.6 20.3 40 10.3 NNW 15 20 8 11 1009.4 - 0.0
19/11:00am 34.8 37.5 22.2 48 8.6 N 11 22 6 12 1009.7 - 0.0
19/10:30am 32.9 34.0 22.0 52 7.4 N 19 37 10 20 1009.9 - 0.0
19/10:00am 32.4 34.2 22.5 56 6.8 N 17 24 9 13 1010.2 - 0.0
19/09:30am 32.5 35.5 23.4 58 6.3 N 13 20 7 11 1010.3 - 0.0
19/09:00am 30.4 34.3 23.6 67 4.7 NNW 9 15 5 8 1010.4 1010.3 0.0
19/08:30am 30.3 34.6 23.7 68 4.6 NNW 7 13 4 7 1010.4 - 0.0
19/08:00am 29.2 33.6 23.4 71 4.0 NW 6 9 3 5 1010.2 - 0.0
19/07:30am 28.4 32.6 23.5 75 3.4 WSW 7 11 4 6 1010.0 - 0.0
19/07:00am 27.4 32.1 24.3 83 2.1 SSW 7 9 4 5 1009.9 - 0.0
19/06:30am 26.5 31.3 24.5 89 1.4 WSW 7 9 4 5 1009.5 - 0.0
19/06:00am 26.4 31.0 24.8 91 1.1 SW 9 13 5 7 1009.4 - 0.0
19/05:30am 26.5 31.4 24.7 90 1.3 WSW 7 11 4 6 1009.2 - 0.0
19/05:03am 26.7 32.8 25.1 91 1.1 NNE 2 7 1 4 1008.7 - 0.0
19/05:00am 26.6 32.3 25.0 91 1.1 NNE 4 11 2 6 1008.7 - 0.0
19/04:30am 26.2 31.1 25.2 94 0.7 NW 9 15 5 8 1008.4 - 0.0
19/04:24am 25.7 29.7 25.0 96 0.5 NNW 13 26 7 14 1008.3 - 0.0
19/04:00am 25.3 29.8 24.6 96 0.5 W 9 11 5 6 1006.6 - 0.0
19/03:30am 25.3 30.1 24.4 95 0.6 W 7 9 4 5 1006.3 - 0.0
19/03:00am 25.6 30.2 24.7 95 0.6 W 9 11 5 6 1006.2 - 0.0
19/02:30am 25.8 30.8 24.8 94 0.7 W 7 9 4 5 1006.3 - 0.0
19/02:00am 26.0 30.9 24.6 92 1.0 W 7 11 4 6 1006.6 - 0.0
19/01:30am 26.3 30.9 24.7 91 1.1 W 9 11 5 6 1006.9 - 0.0
19/01:00am 26.6 31.6 24.8 90 1.3 W 7 9 4 5 1007.1 - 0.0
19/12:30am 26.7 31.6 24.7 89 1.4 W 7 11 4 6 1007.5 - 0.0
19/12:00am 27.1 32.0 24.6 86 1.7 W 7 9 4 5 1007.4 - 0.0
 
Date/Time
EST
Temp
°C
App
Temp
°C
Dew
Point
°C
Rel
Hum
%
Delta-T
°C
Wind Press
QNH
hPa
Press
MSL
hPa
Rain since
9am
mm
Dir  Spd
km/h
Gust
km/h
Spd
kts
Gust
kts
18/11:30pm 27.5 32.4 24.7 85 1.9 W 7 9 4 5 1007.6 - 0.0
18/11:00pm 28.0 32.2 24.8 83 2.2 NW 11 13 6 7 1007.7 - 0.0
18/10:30pm 28.4 32.3 24.8 81 2.5 NNW 13 15 7 8 1007.7 - 0.0
18/10:00pm 28.6 32.3 24.6 79 2.8 NW 13 15 7 8 1007.5 - 0.0
18/09:30pm 28.8 32.5 24.6 78 2.9 NNW 13 17 7 9 1007.3 - 0.0
18/09:00pm 29.0 31.8 24.3 76 3.3 NNW 17 20 9 11 1007.1 - 0.0
18/08:30pm 29.4 32.0 24.0 72 3.7 NNW 17 20 9 11 1006.9 - 0.0
18/08:00pm 29.5 31.9 23.7 71 4.0 NW 17 20 9 11 1006.5 - 0.0
18/07:30pm 29.9 31.5 23.3 67 4.5 NW 20 26 11 14 1006.5 - 0.0
18/07:00pm 30.4 32.0 23.3 66 4.9 NW 20 24 11 13 1006.4 - 0.0
18/06:30pm 31.5 32.6 23.1 61 5.8 NW 22 30 12 16 1006.2 - 0.0
18/06:00pm 33.1 33.8 22.2 52 7.4 NW 22 28 12 15 1005.9 - 0.0
18/05:30pm 33.5 33.3 22.0 51 7.8 NW 26 32 14 17 1005.9 - 0.0
18/05:00pm 34.1 33.2 21.5 47 8.6 NNW 28 37 15 20 1005.8 - 0.0
18/04:30pm 34.7 34.6 21.4 46 9.0 NW 24 33 13 18 1005.9 - 0.0
18/04:00pm 35.0 35.2 21.3 45 9.3 NW 22 30 12 16 1006.2 - 0.0
18/03:30pm 36.0 35.5 20.7 41 10.3 NW 24 43 13 23 1006.3 - 0.0
18/03:00pm 36.6 37.3 20.4 38 10.9 NW 17 32 9 17 1006.5 1006.4 0.0
18/02:30pm 36.8 36.6 19.7 36 11.4 WNW 20 28 11 15 1006.9 - 0.0
18/02:00pm 37.2 36.7 13.9 25 14.4 SE 9 17 5 9 1007.5 - 0.0
18/01:30pm 37.0 36.7 15.5 28 13.6 S 11 19 6 10 1008.0 - 0.0
18/01:00pm 36.5 37.0 15.6 29 13.2 NNW 7 13 4 7 1008.5 - 0.0
18/12:30pm 36.1 36.1 16.3 31 12.6 ESE 11 20 6 11 1008.9 - 0.0

Other Formats:

Comma delimited format used in spreadsheet applications
http://www.bom.gov.au/fwo/IDQ60801/IDQ60801.94266.axf

JavaScript Object Notation format (JSON) in row-major order
http://www.bom.gov.au/fwo/IDQ60801/IDQ60801.94266.json